Información del aeropuerto HEMA

Información de pista
Pista 15 Longitud 9843 ft Anchura 148 ft
Elevación 247 ft Umbral 0 ft Rumbo 150
Pista 33 Longitud 9843 ft Anchura 148 ft
Elevación 233 ft Umbral 0 ft Rumbo 330
Frecuencias del aeropuerto
Tipo APP Nombre APP Frecuencia 121 MHZ
Tipo EMR Nombre FIRE Frecuencia 121.9 MHZ
Tipo GND Nombre GND Frecuencia 121.9 MHZ
Tipo TWR Nombre TWR Frecuencia 121 MHZ
Radioayudas del aeropuerto
Tipo VOR-DME Nombre Marsa Alam Frecuencia 115500 KHZ
Información meteorológica del aeropuerto y NOTAM
ADDS - METARS form results

(0055 UTC 24 June 2021)
Data provider http://aviationweather.gov/metar/data/
 
METAR text: HEMA 240000Z 32013KT CAVOK 30/11 Q1007 NOSIG
Conditions at: HEMA (MARSA ALAM INTL , EG) observed 0000 UTC 24 June 2021
Temperature: 30.0°C (86°F)
Dewpoint: 11.0°C (52°F) [RH = 31%]
Pressure (altimeter): 29.73 inches Hg (1007.0 mb)
Winds: from the NW (320 degrees) at 15 MPH (13 knots; 6.7 m/s)
Visibility: 6 or more miles (10+ km)
Ceiling: ceiling and visibility are OK
Clouds: unknown
Weather: no significant weather observed at this time

Forecast for: HEMA (MARSA ALAM INTL , EG)
Text: TAF HEMA 232300Z 2400/2506 26010KT CAVOK
Forecast period: 0000 UTC 24 June 2021 to 0600 UTC 25 June 2021
Forecast type: FROM: standard forecast or significant change
Winds: from the W (260 degrees) at 12 MPH (10 knots; 5.1 m/s)
Visibility: 6 or more miles (10+ km)
Ceiling: unknown
Clouds: missing
Weather: NSW  (no significant weather)